sensor_id;sensor_type;location;lat;lon;timestamp;P1;durP1;ratioP1;P2;durP2;ratioP2
77701;SDS011;66868;42.708;23.404;2023-04-06T00:00:48;19.10;;;12.50;;
77701;SDS011;66868;42.708;23.404;2023-04-06T00:03:14;22.43;;;12.53;;
77701;SDS011;66868;42.708;23.404;2023-04-06T00:05:40;16.13;;;12.10;;
77701;SDS011;66868;42.708;23.404;2023-04-06T00:08:05;13.50;;;10.40;;
77701;SDS011;66868;42.708;23.404;2023-04-06T00:10:31;18.00;;;11.53;;
77701;SDS011;66868;42.708;23.404;2023-04-06T00:12:57;15.03;;;11.97;;
77701;SDS011;66868;42.708;23.404;2023-04-06T00:15:23;16.57;;;11.33;;
77701;SDS011;66868;42.708;23.404;2023-04-06T00:17:49;17.23;;;12.17;;
77701;SDS011;66868;42.708;23.404;2023-04-06T00:20:15;15.67;;;12.43;;
77701;SDS011;66868;42.708;23.404;2023-04-06T00:22:40;15.57;;;11.87;;
77701;SDS011;66868;42.708;23.404;2023-04-06T00:25:06;15.97;;;11.60;;
77701;SDS011;66868;42.708;23.404;2023-04-06T00:27:32;20.03;;;12.03;;
77701;SDS011;66868;42.708;23.404;2023-04-06T00:29:57;14.70;;;10.87;;
77701;SDS011;66868;42.708;23.404;2023-04-06T00:32:22;17.50;;;12.00;;
77701;SDS011;66868;42.708;23.404;2023-04-06T00:34:48;15.80;;;11.20;;
77701;SDS011;66868;42.708;23.404;2023-04-06T00:37:13;15.00;;;10.43;;
77701;SDS011;66868;42.708;23.404;2023-04-06T00:39:39;14.53;;;11.67;;
77701;SDS011;66868;42.708;23.404;2023-04-06T00:42:08;16.73;;;12.40;;
77701;SDS011;66868;42.708;23.404;2023-04-06T00:44:38;15.00;;;10.60;;
77701;SDS011;66868;42.708;23.404;2023-04-06T00:47:03;16.00;;;11.20;;
77701;SDS011;66868;42.708;23.404;2023-04-06T00:49:29;16.90;;;11.13;;
77701;SDS011;66868;42.708;23.404;2023-04-06T00:51:54;17.17;;;11.10;;
77701;SDS011;66868;42.708;23.404;2023-04-06T00:54:20;13.40;;;11.37;;
77701;SDS011;66868;42.708;23.404;2023-04-06T00:56:45;13.00;;;9.73;;
77701;SDS011;66868;42.708;23.404;2023-04-06T00:59:11;14.53;;;10.10;;
77701;SDS011;66868;42.708;23.404;2023-04-06T01:01:37;13.10;;;9.40;;
77701;SDS011;66868;42.708;23.404;2023-04-06T01:04:02;11.30;;;10.10;;
77701;SDS011;66868;42.708;23.404;2023-04-06T01:06:28;13.17;;;10.03;;
77701;SDS011;66868;42.708;23.404;2023-04-06T01:08:53;12.37;;;10.03;;
77701;SDS011;66868;42.708;23.404;2023-04-06T01:11:19;13.37;;;9.47;;
77701;SDS011;66868;42.708;23.404;2023-04-06T01:13:45;17.43;;;11.10;;
77701;SDS011;66868;42.708;23.404;2023-04-06T01:16:11;15.93;;;10.43;;
77701;SDS011;66868;42.708;23.404;2023-04-06T01:18:37;11.50;;;10.20;;
77701;SDS011;66868;42.708;23.404;2023-04-06T01:21:02;14.27;;;10.40;;
77701;SDS011;66868;42.708;23.404;2023-04-06T01:23:28;12.40;;;8.43;;
77701;SDS011;66868;42.708;23.404;2023-04-06T01:25:53;13.93;;;9.63;;
77701;SDS011;66868;42.708;23.404;2023-04-06T01:28:19;13.97;;;9.00;;
77701;SDS011;66868;42.708;23.404;2023-04-06T01:30:45;11.67;;;9.47;;
77701;SDS011;66868;42.708;23.404;2023-04-06T01:33:10;11.90;;;9.77;;
77701;SDS011;66868;42.708;23.404;2023-04-06T01:35:35;12.20;;;10.57;;
77701;SDS011;66868;42.708;23.404;2023-04-06T01:38:01;11.80;;;9.70;;
77701;SDS011;66868;42.708;23.404;2023-04-06T01:40:27;10.67;;;9.30;;
77701;SDS011;66868;42.708;23.404;2023-04-06T01:42:52;10.80;;;9.07;;
77701;SDS011;66868;42.708;23.404;2023-04-06T01:45:18;12.63;;;8.43;;
77701;SDS011;66868;42.708;23.404;2023-04-06T01:47:43;12.00;;;9.43;;
77701;SDS011;66868;42.708;23.404;2023-04-06T01:50:08;12.13;;;9.17;;
77701;SDS011;66868;42.708;23.404;2023-04-06T01:52:34;13.13;;;10.40;;
77701;SDS011;66868;42.708;23.404;2023-04-06T01:55:00;13.70;;;10.63;;
77701;SDS011;66868;42.708;23.404;2023-04-06T01:57:25;18.73;;;11.33;;
77701;SDS011;66868;42.708;23.404;2023-04-06T01:59:51;16.93;;;11.40;;
77701;SDS011;66868;42.708;23.404;2023-04-06T02:02:16;11.07;;;9.97;;
77701;SDS011;66868;42.708;23.404;2023-04-06T02:04:42;15.87;;;10.43;;
77701;SDS011;66868;42.708;23.404;2023-04-06T02:07:07;11.07;;;8.43;;
77701;SDS011;66868;42.708;23.404;2023-04-06T02:09:33;14.20;;;10.13;;
77701;SDS011;66868;42.708;23.404;2023-04-06T02:11:58;12.93;;;9.00;;
77701;SDS011;66868;42.708;23.404;2023-04-06T02:14:24;11.17;;;8.90;;
77701;SDS011;66868;42.708;23.404;2023-04-06T02:16:51;15.70;;;10.70;;
77701;SDS011;66868;42.708;23.404;2023-04-06T02:19:16;15.00;;;11.47;;
77701;SDS011;66868;42.708;23.404;2023-04-06T02:21:42;12.23;;;10.33;;
77701;SDS011;66868;42.708;23.404;2023-04-06T02:24:07;13.67;;;9.73;;
77701;SDS011;66868;42.708;23.404;2023-04-06T02:26:33;12.13;;;10.37;;
77701;SDS011;66868;42.708;23.404;2023-04-06T02:28:58;15.80;;;10.97;;
77701;SDS011;66868;42.708;23.404;2023-04-06T02:31:24;18.70;;;11.17;;
77701;SDS011;66868;42.708;23.404;2023-04-06T02:33:49;16.70;;;11.30;;
77701;SDS011;66868;42.708;23.404;2023-04-06T02:36:14;17.23;;;10.83;;
77701;SDS011;66868;42.708;23.404;2023-04-06T02:38:40;17.73;;;11.70;;
77701;SDS011;66868;42.708;23.404;2023-04-06T02:41:05;16.93;;;11.30;;
77701;SDS011;66868;42.708;23.404;2023-04-06T02:43:31;21.47;;;13.30;;
77701;SDS011;66868;42.708;23.404;2023-04-06T02:45:56;16.20;;;11.30;;
77701;SDS011;66868;42.708;23.404;2023-04-06T02:48:21;15.10;;;10.67;;
77701;SDS011;66868;42.708;23.404;2023-04-06T02:50:47;16.17;;;10.43;;
77701;SDS011;66868;42.708;23.404;2023-04-06T02:53:12;13.30;;;9.93;;
77701;SDS011;66868;42.708;23.404;2023-04-06T02:55:38;16.30;;;11.13;;
77701;SDS011;66868;42.708;23.404;2023-04-06T02:58:03;14.90;;;10.03;;
77701;SDS011;66868;42.708;23.404;2023-04-06T03:00:29;11.27;;;8.63;;
77701;SDS011;66868;42.708;23.404;2023-04-06T03:02:55;14.10;;;9.60;;
77701;SDS011;66868;42.708;23.404;2023-04-06T03:05:20;15.00;;;10.73;;
77701;SDS011;66868;42.708;23.404;2023-04-06T03:07:45;14.43;;;9.97;;
77701;SDS011;66868;42.708;23.404;2023-04-06T03:10:11;11.53;;;9.40;;
77701;SDS011;66868;42.708;23.404;2023-04-06T03:12:36;16.83;;;11.03;;
77701;SDS011;66868;42.708;23.404;2023-04-06T03:15:02;15.63;;;11.07;;
77701;SDS011;66868;42.708;23.404;2023-04-06T03:17:27;16.50;;;10.83;;
77701;SDS011;66868;42.708;23.404;2023-04-06T03:19:53;19.57;;;12.43;;
77701;SDS011;66868;42.708;23.404;2023-04-06T03:22:19;15.90;;;10.83;;
77701;SDS011;66868;42.708;23.404;2023-04-06T03:24:45;13.43;;;9.60;;
77701;SDS011;66868;42.708;23.404;2023-04-06T03:27:10;15.90;;;11.03;;
77701;SDS011;66868;42.708;23.404;2023-04-06T03:29:36;14.80;;;10.77;;
77701;SDS011;66868;42.708;23.404;2023-04-06T03:32:01;17.27;;;10.97;;
77701;SDS011;66868;42.708;23.404;2023-04-06T03:34:26;14.70;;;10.57;;
77701;SDS011;66868;42.708;23.404;2023-04-06T03:36:52;9.90;;;8.17;;
77701;SDS011;66868;42.708;23.404;2023-04-06T03:39:17;12.53;;;10.53;;
77701;SDS011;66868;42.708;23.404;2023-04-06T03:41:43;16.97;;;10.80;;
77701;SDS011;66868;42.708;23.404;2023-04-06T03:44:09;10.53;;;7.83;;
77701;SDS011;66868;42.708;23.404;2023-04-06T03:46:35;14.83;;;9.47;;
77701;SDS011;66868;42.708;23.404;2023-04-06T03:49:00;17.57;;;10.60;;
77701;SDS011;66868;42.708;23.404;2023-04-06T03:51:26;16.53;;;12.43;;
77701;SDS011;66868;42.708;23.404;2023-04-06T03:53:52;16.23;;;11.47;;
77701;SDS011;66868;42.708;23.404;2023-04-06T03:56:18;20.57;;;12.67;;
77701;SDS011;66868;42.708;23.404;2023-04-06T03:58:43;13.23;;;10.63;;
77701;SDS011;66868;42.708;23.404;2023-04-06T04:01:10;14.13;;;10.23;;
77701;SDS011;66868;42.708;23.404;2023-04-06T04:03:35;16.90;;;10.50;;
77701;SDS011;66868;42.708;23.404;2023-04-06T04:06:01;13.50;;;9.00;;
77701;SDS011;66868;42.708;23.404;2023-04-06T04:08:26;13.37;;;8.57;;
77701;SDS011;66868;42.708;23.404;2023-04-06T04:10:52;15.50;;;10.40;;
77701;SDS011;66868;42.708;23.404;2023-04-06T04:13:17;15.57;;;11.17;;
77701;SDS011;66868;42.708;23.404;2023-04-06T04:15:43;15.63;;;10.33;;
77701;SDS011;66868;42.708;23.404;2023-04-06T04:18:09;16.67;;;10.23;;
77701;SDS011;66868;42.708;23.404;2023-04-06T04:20:34;17.57;;;10.90;;
77701;SDS011;66868;42.708;23.404;2023-04-06T04:23:00;12.80;;;9.47;;
77701;SDS011;66868;42.708;23.404;2023-04-06T04:25:25;11.17;;;8.23;;
77701;SDS011;66868;42.708;23.404;2023-04-06T04:27:50;18.57;;;9.50;;
77701;SDS011;66868;42.708;23.404;2023-04-06T04:30:16;17.97;;;9.90;;
77701;SDS011;66868;42.708;23.404;2023-04-06T04:32:41;16.47;;;11.50;;
77701;SDS011;66868;42.708;23.404;2023-04-06T04:35:07;18.10;;;11.93;;
77701;SDS011;66868;42.708;23.404;2023-04-06T04:37:33;12.07;;;8.83;;
77701;SDS011;66868;42.708;23.404;2023-04-06T04:40:00;21.23;;;12.87;;
77701;SDS011;66868;42.708;23.404;2023-04-06T04:42:25;15.57;;;11.00;;
77701;SDS011;66868;42.708;23.404;2023-04-06T04:44:50;15.30;;;10.27;;
77701;SDS011;66868;42.708;23.404;2023-04-06T04:47:16;14.47;;;10.37;;
77701;SDS011;66868;42.708;23.404;2023-04-06T04:49:41;14.90;;;11.30;;
77701;SDS011;66868;42.708;23.404;2023-04-06T04:52:07;23.00;;;12.37;;
77701;SDS011;66868;42.708;23.404;2023-04-06T04:54:32;18.97;;;11.17;;
77701;SDS011;66868;42.708;23.404;2023-04-06T04:56:57;18.27;;;12.57;;
77701;SDS011;66868;42.708;23.404;2023-04-06T04:59:23;15.70;;;9.97;;
77701;SDS011;66868;42.708;23.404;2023-04-06T05:01:48;20.53;;;12.23;;
77701;SDS011;66868;42.708;23.404;2023-04-06T05:04:14;21.77;;;12.97;;
77701;SDS011;66868;42.708;23.404;2023-04-06T05:06:39;21.13;;;13.10;;
77701;SDS011;66868;42.708;23.404;2023-04-06T05:09:05;18.50;;;13.20;;
77701;SDS011;66868;42.708;23.404;2023-04-06T05:11:30;25.07;;;11.80;;
77701;SDS011;66868;42.708;23.404;2023-04-06T05:13:56;23.80;;;14.20;;
77701;SDS011;66868;42.708;23.404;2023-04-06T05:16:21;19.10;;;12.93;;
77701;SDS011;66868;42.708;23.404;2023-04-06T05:18:47;21.23;;;12.70;;
77701;SDS011;66868;42.708;23.404;2023-04-06T05:21:13;20.57;;;13.67;;
77701;SDS011;66868;42.708;23.404;2023-04-06T05:23:38;20.30;;;13.00;;
77701;SDS011;66868;42.708;23.404;2023-04-06T05:26:04;21.37;;;12.80;;
77701;SDS011;66868;42.708;23.404;2023-04-06T05:28:30;19.23;;;11.83;;
77701;SDS011;66868;42.708;23.404;2023-04-06T05:30:55;14.70;;;10.37;;
77701;SDS011;66868;42.708;23.404;2023-04-06T05:33:21;19.83;;;9.77;;
77701;SDS011;66868;42.708;23.404;2023-04-06T05:35:47;15.07;;;9.70;;
77701;SDS011;66868;42.708;23.404;2023-04-06T05:38:12;16.60;;;8.60;;
77701;SDS011;66868;42.708;23.404;2023-04-06T05:40:38;16.13;;;10.70;;
77701;SDS011;66868;42.708;23.404;2023-04-06T05:43:05;14.00;;;9.20;;
77701;SDS011;66868;42.708;23.404;2023-04-06T05:45:31;12.30;;;9.67;;
77701;SDS011;66868;42.708;23.404;2023-04-06T05:47:56;16.53;;;11.10;;
77701;SDS011;66868;42.708;23.404;2023-04-06T05:50:22;21.27;;;12.20;;
77701;SDS011;66868;42.708;23.404;2023-04-06T05:52:47;15.17;;;10.53;;
77701;SDS011;66868;42.708;23.404;2023-04-06T05:55:13;16.83;;;11.40;;
77701;SDS011;66868;42.708;23.404;2023-04-06T05:57:38;18.17;;;12.13;;
77701;SDS011;66868;42.708;23.404;2023-04-06T06:00:04;18.13;;;11.77;;
77701;SDS011;66868;42.708;23.404;2023-04-06T06:02:33;18.20;;;10.40;;
77701;SDS011;66868;42.708;23.404;2023-04-06T06:04:58;21.37;;;11.37;;
77701;SDS011;66868;42.708;23.404;2023-04-06T06:07:23;15.53;;;10.23;;
77701;SDS011;66868;42.708;23.404;2023-04-06T06:09:49;14.97;;;10.63;;
77701;SDS011;66868;42.708;23.404;2023-04-06T06:12:15;14.93;;;10.70;;
77701;SDS011;66868;42.708;23.404;2023-04-06T06:14:40;19.77;;;11.07;;
77701;SDS011;66868;42.708;23.404;2023-04-06T06:17:05;15.60;;;8.97;;
77701;SDS011;66868;42.708;23.404;2023-04-06T06:19:31;17.77;;;11.73;;
77701;SDS011;66868;42.708;23.404;2023-04-06T06:21:56;17.40;;;10.60;;
77701;SDS011;66868;42.708;23.404;2023-04-06T06:24:22;18.93;;;11.07;;
77701;SDS011;66868;42.708;23.404;2023-04-06T06:26:47;17.97;;;12.13;;
77701;SDS011;66868;42.708;23.404;2023-04-06T06:29:13;12.67;;;8.80;;
77701;SDS011;66868;42.708;23.404;2023-04-06T06:31:39;17.93;;;11.60;;
77701;SDS011;66868;42.708;23.404;2023-04-06T06:34:05;15.37;;;10.67;;
77701;SDS011;66868;42.708;23.404;2023-04-06T06:36:31;16.53;;;11.20;;
77701;SDS011;66868;42.708;23.404;2023-04-06T06:38:57;22.90;;;11.93;;
77701;SDS011;66868;42.708;23.404;2023-04-06T06:41:23;15.80;;;10.63;;
77701;SDS011;66868;42.708;23.404;2023-04-06T06:43:51;16.83;;;10.87;;
77701;SDS011;66868;42.708;23.404;2023-04-06T06:46:16;17.30;;;10.53;;
77701;SDS011;66868;42.708;23.404;2023-04-06T06:48:42;16.47;;;10.87;;
77701;SDS011;66868;42.708;23.404;2023-04-06T06:51:08;19.13;;;10.23;;
77701;SDS011;66868;42.708;23.404;2023-04-06T06:53:34;17.97;;;12.23;;
77701;SDS011;66868;42.708;23.404;2023-04-06T06:56:00;13.13;;;9.33;;
77701;SDS011;66868;42.708;23.404;2023-04-06T06:58:25;14.13;;;9.53;;
77701;SDS011;66868;42.708;23.404;2023-04-06T07:00:55;15.60;;;9.37;;
77701;SDS011;66868;42.708;23.404;2023-04-06T07:03:22;16.60;;;9.40;;
77701;SDS011;66868;42.708;23.404;2023-04-06T07:05:48;10.73;;;8.57;;
77701;SDS011;66868;42.708;23.404;2023-04-06T07:08:18;15.23;;;9.57;;
77701;SDS011;66868;42.708;23.404;2023-04-06T07:10:46;17.13;;;9.93;;
77701;SDS011;66868;42.708;23.404;2023-04-06T07:13:12;17.53;;;10.93;;
77701;SDS011;66868;42.708;23.404;2023-04-06T07:15:43;17.43;;;12.17;;
77701;SDS011;66868;42.708;23.404;2023-04-06T07:18:08;19.60;;;11.63;;
77701;SDS011;66868;42.708;23.404;2023-04-06T07:20:34;15.00;;;10.57;;
77701;SDS011;66868;42.708;23.404;2023-04-06T07:22:59;14.13;;;10.23;;
77701;SDS011;66868;42.708;23.404;2023-04-06T07:25:24;17.67;;;10.27;;
77701;SDS011;66868;42.708;23.404;2023-04-06T07:27:52;18.70;;;12.13;;
77701;SDS011;66868;42.708;23.404;2023-04-06T07:30:18;16.43;;;10.97;;
77701;SDS011;66868;42.708;23.404;2023-04-06T07:32:44;14.10;;;10.83;;
77701;SDS011;66868;42.708;23.404;2023-04-06T07:35:10;15.63;;;10.50;;
77701;SDS011;66868;42.708;23.404;2023-04-06T07:37:35;12.40;;;8.47;;
77701;SDS011;66868;42.708;23.404;2023-04-06T07:40:01;14.17;;;10.57;;
77701;SDS011;66868;42.708;23.404;2023-04-06T07:42:26;11.63;;;9.13;;
77701;SDS011;66868;42.708;23.404;2023-04-06T07:44:51;10.27;;;7.80;;
77701;SDS011;66868;42.708;23.404;2023-04-06T07:47:17;16.90;;;11.83;;
77701;SDS011;66868;42.708;23.404;2023-04-06T07:49:42;13.77;;;9.37;;
77701;SDS011;66868;42.708;23.404;2023-04-06T07:52:08;12.17;;;8.20;;
77701;SDS011;66868;42.708;23.404;2023-04-06T07:54:33;14.80;;;8.90;;
77701;SDS011;66868;42.708;23.404;2023-04-06T07:56:59;15.33;;;10.27;;
77701;SDS011;66868;42.708;23.404;2023-04-06T07:59:24;12.53;;;9.10;;
77701;SDS011;66868;42.708;23.404;2023-04-06T08:01:49;10.60;;;7.87;;
77701;SDS011;66868;42.708;23.404;2023-04-06T08:04:15;15.80;;;10.80;;
77701;SDS011;66868;42.708;23.404;2023-04-06T08:06:40;14.93;;;9.60;;
77701;SDS011;66868;42.708;23.404;2023-04-06T08:09:06;9.30;;;7.10;;
77701;SDS011;66868;42.708;23.404;2023-04-06T08:11:31;12.77;;;8.40;;
77701;SDS011;66868;42.708;23.404;2023-04-06T08:13:57;11.07;;;8.60;;
77701;SDS011;66868;42.708;23.404;2023-04-06T08:16:22;13.37;;;9.30;;
77701;SDS011;66868;42.708;23.404;2023-04-06T08:18:48;13.20;;;9.70;;
77701;SDS011;66868;42.708;23.404;2023-04-06T08:21:14;8.70;;;7.60;;
77701;SDS011;66868;42.708;23.404;2023-04-06T08:23:39;10.73;;;7.27;;
77701;SDS011;66868;42.708;23.404;2023-04-06T08:26:05;8.83;;;7.10;;
77701;SDS011;66868;42.708;23.404;2023-04-06T08:28:30;14.53;;;8.77;;
77701;SDS011;66868;42.708;23.404;2023-04-06T08:30:56;8.80;;;7.33;;
77701;SDS011;66868;42.708;23.404;2023-04-06T08:33:21;9.00;;;7.30;;
77701;SDS011;66868;42.708;23.404;2023-04-06T08:35:46;9.97;;;7.60;;
77701;SDS011;66868;42.708;23.404;2023-04-06T08:38:12;11.07;;;7.83;;
77701;SDS011;66868;42.708;23.404;2023-04-06T08:40:38;9.83;;;7.53;;
77701;SDS011;66868;42.708;23.404;2023-04-06T08:43:04;8.87;;;7.90;;
77701;SDS011;66868;42.708;23.404;2023-04-06T08:45:34;11.13;;;9.20;;
77701;SDS011;66868;42.708;23.404;2023-04-06T08:47:59;10.93;;;8.27;;
77701;SDS011;66868;42.708;23.404;2023-04-06T08:50:29;17.33;;;10.97;;
77701;SDS011;66868;42.708;23.404;2023-04-06T08:52:55;10.70;;;9.40;;
77701;SDS011;66868;42.708;23.404;2023-04-06T08:55:21;14.77;;;9.93;;
77701;SDS011;66868;42.708;23.404;2023-04-06T08:57:49;17.43;;;8.40;;
77701;SDS011;66868;42.708;23.404;2023-04-06T09:00:18;8.10;;;7.13;;
77701;SDS011;66868;42.708;23.404;2023-04-06T09:02:45;9.23;;;8.33;;
77701;SDS011;66868;42.708;23.404;2023-04-06T09:05:11;7.20;;;6.60;;
77701;SDS011;66868;42.708;23.404;2023-04-06T09:07:37;9.00;;;7.20;;
77701;SDS011;66868;42.708;23.404;2023-04-06T09:10:03;14.17;;;7.83;;
77701;SDS011;66868;42.708;23.404;2023-04-06T09:12:30;12.33;;;9.03;;
77701;SDS011;66868;42.708;23.404;2023-04-06T09:14:57;8.77;;;7.10;;
77701;SDS011;66868;42.708;23.404;2023-04-06T09:17:27;7.50;;;6.73;;
77701;SDS011;66868;42.708;23.404;2023-04-06T09:19:55;13.07;;;7.00;;
77701;SDS011;66868;42.708;23.404;2023-04-06T09:22:21;12.63;;;7.97;;
77701;SDS011;66868;42.708;23.404;2023-04-06T09:24:47;13.40;;;8.33;;
77701;SDS011;66868;42.708;23.404;2023-04-06T09:27:15;12.83;;;8.53;;
77701;SDS011;66868;42.708;23.404;2023-04-06T09:29:41;11.30;;;8.87;;
77701;SDS011;66868;42.708;23.404;2023-04-06T09:32:08;10.97;;;7.60;;
77701;SDS011;66868;42.708;23.404;2023-04-06T09:34:41;11.13;;;8.50;;
77701;SDS011;66868;42.708;23.404;2023-04-06T09:37:14;12.50;;;7.37;;
77701;SDS011;66868;42.708;23.404;2023-04-06T09:39:44;10.10;;;8.97;;
77701;SDS011;66868;42.708;23.404;2023-04-06T09:42:32;12.33;;;8.17;;
77701;SDS011;66868;42.708;23.404;2023-04-06T09:44:56;12.80;;;8.43;;
77701;SDS011;66868;42.708;23.404;2023-04-06T09:47:22;9.67;;;7.10;;
77701;SDS011;66868;42.708;23.404;2023-04-06T09:49:53;9.50;;;7.37;;
77701;SDS011;66868;42.708;23.404;2023-04-06T09:52:21;6.87;;;6.17;;
77701;SDS011;66868;42.708;23.404;2023-04-06T09:54:51;7.60;;;6.80;;
77701;SDS011;66868;42.708;23.404;2023-04-06T09:57:23;9.00;;;6.60;;
77701;SDS011;66868;42.708;23.404;2023-04-06T10:00:03;8.57;;;7.43;;
77701;SDS011;66868;42.708;23.404;2023-04-06T10:05:33;9.03;;;6.50;;
77701;SDS011;66868;42.708;23.404;2023-04-06T10:08:02;11.83;;;8.60;;
77701;SDS011;66868;42.708;23.404;2023-04-06T10:10:32;9.10;;;6.30;;
77701;SDS011;66868;42.708;23.404;2023-04-06T10:13:18;8.33;;;7.33;;
77701;SDS011;66868;42.708;23.404;2023-04-06T10:15:44;8.80;;;7.43;;
77701;SDS011;66868;42.708;23.404;2023-04-06T10:18:10;12.77;;;7.33;;
77701;SDS011;66868;42.708;23.404;2023-04-06T10:23:09;8.97;;;7.90;;
77701;SDS011;66868;42.708;23.404;2023-04-06T10:25:51;10.63;;;7.70;;
77701;SDS011;66868;42.708;23.404;2023-04-06T10:28:20;7.43;;;6.47;;
77701;SDS011;66868;42.708;23.404;2023-04-06T10:30:46;9.60;;;7.47;;
77701;SDS011;66868;42.708;23.404;2023-04-06T10:33:15;9.83;;;7.37;;
77701;SDS011;66868;42.708;23.404;2023-04-06T10:35:44;9.00;;;6.30;;
77701;SDS011;66868;42.708;23.404;2023-04-06T10:38:10;10.33;;;7.43;;
77701;SDS011;66868;42.708;23.404;2023-04-06T10:40:40;8.43;;;7.17;;
77701;SDS011;66868;42.708;23.404;2023-04-06T10:43:12;9.30;;;7.30;;
77701;SDS011;66868;42.708;23.404;2023-04-06T10:45:54;8.70;;;7.80;;
77701;SDS011;66868;42.708;23.404;2023-04-06T10:48:21;7.37;;;6.67;;
77701;SDS011;66868;42.708;23.404;2023-04-06T10:50:47;8.60;;;7.70;;
77701;SDS011;66868;42.708;23.404;2023-04-06T10:53:23;7.77;;;6.70;;
77701;SDS011;66868;42.708;23.404;2023-04-06T10:55:50;7.75;;;6.72;;
77701;SDS011;66868;42.708;23.404;2023-04-06T10:58:17;8.77;;;7.40;;
77701;SDS011;66868;42.708;23.404;2023-04-06T11:00:48;6.95;;;6.40;;
77701;SDS011;66868;42.708;23.404;2023-04-06T11:03:14;9.97;;;7.57;;
77701;SDS011;66868;42.708;23.404;2023-04-06T11:05:44;10.67;;;6.70;;
77701;SDS011;66868;42.708;23.404;2023-04-06T11:08:23;8.23;;;7.45;;
77701;SDS011;66868;42.708;23.404;2023-04-06T11:10:52;8.27;;;7.47;;
77701;SDS011;66868;42.708;23.404;2023-04-06T11:13:41;7.95;;;7.10;;
77701;SDS011;66868;42.708;23.404;2023-04-06T11:18:50;8.30;;;7.13;;
77701;SDS011;66868;42.708;23.404;2023-04-06T11:21:16;7.57;;;6.63;;
77701;SDS011;66868;42.708;23.404;2023-04-06T11:23:42;8.75;;;7.90;;
77701;SDS011;66868;42.708;23.404;2023-04-06T11:26:11;8.55;;;7.75;;
77701;SDS011;66868;42.708;23.404;2023-04-06T11:28:37;7.72;;;7.03;;
77701;SDS011;66868;42.708;23.404;2023-04-06T11:31:04;16.25;;;6.95;;
77701;SDS011;66868;42.708;23.404;2023-04-06T11:33:34;7.68;;;6.97;;
77701;SDS011;66868;42.708;23.404;2023-04-06T11:36:01;11.68;;;7.00;;
77701;SDS011;66868;42.708;23.404;2023-04-06T11:38:26;9.02;;;7.32;;
77701;SDS011;66868;42.708;23.404;2023-04-06T11:40:52;7.95;;;7.13;;
77701;SDS011;66868;42.708;23.404;2023-04-06T11:43:25;10.35;;;8.05;;
77701;SDS011;66868;42.708;23.404;2023-04-06T11:45:51;8.85;;;7.97;;
77701;SDS011;66868;42.708;23.404;2023-04-06T11:48:43;8.23;;;7.43;;
77701;SDS011;66868;42.708;23.404;2023-04-06T11:51:10;8.10;;;7.30;;
77701;SDS011;66868;42.708;23.404;2023-04-06T11:53:43;7.85;;;7.13;;
77701;SDS011;66868;42.708;23.404;2023-04-06T11:56:10;10.15;;;9.10;;
77701;SDS011;66868;42.708;23.404;2023-04-06T11:58:36;11.85;;;9.15;;
77701;SDS011;66868;42.708;23.404;2023-04-06T12:01:05;15.03;;;9.00;;
77701;SDS011;66868;42.708;23.404;2023-04-06T12:03:30;14.00;;;9.07;;
77701;SDS011;66868;42.708;23.404;2023-04-06T12:05:56;9.25;;;7.90;;
77701;SDS011;66868;42.708;23.404;2023-04-06T12:08:21;13.02;;;7.90;;
77701;SDS011;66868;42.708;23.404;2023-04-06T12:10:50;14.10;;;9.90;;
77701;SDS011;66868;42.708;23.404;2023-04-06T12:13:15;48.22;;;17.73;;
77701;SDS011;66868;42.708;23.404;2023-04-06T12:15:41;44.63;;;22.20;;
77701;SDS011;66868;42.708;23.404;2023-04-06T12:18:06;9.17;;;7.87;;
77701;SDS011;66868;42.708;23.404;2023-04-06T12:20:31;8.10;;;6.90;;
77701;SDS011;66868;42.708;23.404;2023-04-06T12:22:57;9.05;;;7.40;;
77701;SDS011;66868;42.708;23.404;2023-04-06T12:25:22;12.10;;;8.50;;
77701;SDS011;66868;42.708;23.404;2023-04-06T12:27:51;12.63;;;8.40;;
77701;SDS011;66868;42.708;23.404;2023-04-06T12:30:16;11.50;;;8.07;;
77701;SDS011;66868;42.708;23.404;2023-04-06T12:32:41;17.90;;;10.20;;
77701;SDS011;66868;42.708;23.404;2023-04-06T12:35:10;8.27;;;7.40;;
77701;SDS011;66868;42.708;23.404;2023-04-06T12:37:36;9.27;;;8.13;;
77701;SDS011;66868;42.708;23.404;2023-04-06T12:40:02;7.97;;;7.17;;
77701;SDS011;66868;42.708;23.404;2023-04-06T12:42:29;7.45;;;6.65;;
77701;SDS011;66868;42.708;23.404;2023-04-06T12:44:54;7.60;;;6.80;;
77701;SDS011;66868;42.708;23.404;2023-04-06T12:47:20;9.43;;;7.60;;
77701;SDS011;66868;42.708;23.404;2023-04-06T12:49:45;13.77;;;7.63;;
77701;SDS011;66868;42.708;23.404;2023-04-06T12:52:11;9.33;;;8.30;;
77701;SDS011;66868;42.708;23.404;2023-04-06T12:54:36;9.10;;;8.17;;
77701;SDS011;66868;42.708;23.404;2023-04-06T12:57:02;11.93;;;7.80;;
77701;SDS011;66868;42.708;23.404;2023-04-06T12:59:27;8.37;;;7.57;;
77701;SDS011;66868;42.708;23.404;2023-04-06T13:01:59;9.07;;;8.23;;
77701;SDS011;66868;42.708;23.404;2023-04-06T13:04:25;8.03;;;7.30;;
77701;SDS011;66868;42.708;23.404;2023-04-06T13:06:51;7.93;;;7.13;;
77701;SDS011;66868;42.708;23.404;2023-04-06T13:09:16;11.47;;;7.53;;
77701;SDS011;66868;42.708;23.404;2023-04-06T13:11:45;9.97;;;7.83;;
77701;SDS011;66868;42.708;23.404;2023-04-06T13:14:10;11.80;;;7.23;;
77701;SDS011;66868;42.708;23.404;2023-04-06T13:16:36;14.67;;;9.40;;
77701;SDS011;66868;42.708;23.404;2023-04-06T13:19:02;10.87;;;6.87;;
77701;SDS011;66868;42.708;23.404;2023-04-06T13:21:27;6.37;;;5.87;;
77701;SDS011;66868;42.708;23.404;2023-04-06T13:23:53;8.40;;;6.75;;
77701;SDS011;66868;42.708;23.404;2023-04-06T13:26:18;6.63;;;5.90;;
77701;SDS011;66868;42.708;23.404;2023-04-06T13:28:43;9.20;;;7.23;;
77701;SDS011;66868;42.708;23.404;2023-04-06T13:31:09;8.15;;;7.25;;
77701;SDS011;66868;42.708;23.404;2023-04-06T13:33:35;8.83;;;7.93;;
77701;SDS011;66868;42.708;23.404;2023-04-06T13:36:00;8.63;;;6.43;;
77701;SDS011;66868;42.708;23.404;2023-04-06T13:38:25;8.67;;;6.90;;
77701;SDS011;66868;42.708;23.404;2023-04-06T13:40:51;9.07;;;6.28;;
77701;SDS011;66868;42.708;23.404;2023-04-06T13:43:17;6.53;;;5.93;;
77701;SDS011;66868;42.708;23.404;2023-04-06T13:45:48;7.40;;;5.93;;
77701;SDS011;66868;42.708;23.404;2023-04-06T13:48:15;8.45;;;6.85;;
77701;SDS011;66868;42.708;23.404;2023-04-06T13:50:41;5.90;;;5.43;;
77701;SDS011;66868;42.708;23.404;2023-04-06T13:53:06;7.07;;;6.37;;
77701;SDS011;66868;42.708;23.404;2023-04-06T13:55:31;8.50;;;6.73;;
77701;SDS011;66868;42.708;23.404;2023-04-06T13:57:57;8.27;;;6.23;;
77701;SDS011;66868;42.708;23.404;2023-04-06T14:00:22;10.93;;;9.47;;
77701;SDS011;66868;42.708;23.404;2023-04-06T14:02:48;9.77;;;7.77;;
77701;SDS011;66868;42.708;23.404;2023-04-06T14:05:14;11.13;;;6.57;;
77701;SDS011;66868;42.708;23.404;2023-04-06T14:07:39;8.88;;;6.50;;
77701;SDS011;66868;42.708;23.404;2023-04-06T14:10:05;7.80;;;7.03;;
77701;SDS011;66868;42.708;23.404;2023-04-06T14:12:38;7.10;;;6.50;;
77701;SDS011;66868;42.708;23.404;2023-04-06T14:15:04;8.43;;;7.63;;
77701;SDS011;66868;42.708;23.404;2023-04-06T14:17:30;10.73;;;7.67;;
77701;SDS011;66868;42.708;23.404;2023-04-06T14:19:56;8.27;;;7.47;;
77701;SDS011;66868;42.708;23.404;2023-04-06T14:22:21;8.27;;;7.33;;